Yunhai 607 — 9GJZ — position and weather

sailwx.info

Track history (hours):
 
Tides and Currents Weather Stations Pressure Air Temp Water Temp Dewpoint Dewpoint Depression Visibility Wind Speed Wind Dir Waves Ship Positions

Yunhai 607

Last reported at 2017-Oct-06 12:34 UTC. Time now 2017-Oct-20 14:10 UTC.
Position N 05°31' W 000°02'.
Warning: this ship's position is 14 days out of date.

Length 35 m.

Type: Fishing. MMSI: 627176000.

Date/timePositionNaut miles runAvg speedWind from/ knotsBaromVisibWave heightAir tempDewpointWater temp
2017-Oct-06 12:34N 05°31' W 000°02'0 7.8
2017-Oct-06 12:31N 05°31' W 000°01'5 7.6
2017-Oct-06 11:53N 05°35' E 000°02'0 0.9
2017-Oct-06 11:25N 05°35' E 000°02'0 0.0
2017-Oct-06 10:46N 05°35' E 000°02'0 0.0
2017-Oct-06 10:25N 05°35' E 000°02'0 0.8
2017-Oct-06 10:00N 05°36' E 000°02'0 0.5
2017-Oct-06 09:30N 05°36' E 000°02'2 4.1
2017-Oct-06 09:00N 05°38' E 000°01'1 1.1
2017-Oct-06 08:29N 05°37' E 000°01'0 0.0
2017-Oct-06 07:59N 05°37' E 000°01'0 0.0
2017-Oct-06 07:29N 05°37' E 000°01'0 0.0
2017-Oct-06 06:59N 05°37' E 000°01'0 0.0
2017-Oct-06 06:29N 05°37' E 000°01'0 0.1
2017-Oct-06 05:59N 05°37' E 000°01'0 0.0
2017-Oct-06 05:29N 05°37' E 000°01'0 0.0
2017-Oct-06 04:59N 05°37' E 000°01'0 0.0
2017-Oct-06 04:29N 05°37' E 000°01'0 0.0
2017-Oct-06 03:59N 05°37' E 000°01'0 0.0
2017-Oct-06 03:29N 05°37' E 000°01'0 0.0
2017-Oct-06 02:59N 05°37' E 000°01'0 0.0
2017-Oct-06 02:30N 05°37' E 000°01'0 0.0
2017-Oct-06 01:58N 05°37' E 000°01'0 0.0
2017-Oct-06 01:28N 05°37' E 000°01'0 0.0
2017-Oct-06 00:58N 05°37' E 000°01'0 0.0
2017-Oct-06 00:30N 05°37' E 000°01'0 0.0
2017-Oct-05 23:59N 05°37' E 000°01'0 0.0
2017-Oct-05 23:29N 05°37' E 000°01'0 0.0
2017-Oct-05 22:59N 05°37' E 000°01'0 0.0
2017-Oct-05 22:29N 05°37' E 000°01'0 0.0
2017-Oct-05 21:59N 05°37' E 000°01'0 0.0
2017-Oct-05 21:29N 05°37' E 000°01'0 0.0
2017-Oct-05 20:59N 05°37' E 000°01'0 0.0
2017-Oct-05 20:29N 05°37' E 000°01'0 0.0
2017-Oct-05 19:59N 05°37' E 000°01'0 0.0
2017-Oct-05 19:29N 05°37' E 000°01'0 0.0
2017-Oct-05 18:59N 05°37' E 000°01'0 0.0
2017-Oct-05 18:29N 05°37' E 000°01'0 0.0
2017-Oct-05 17:59N 05°37' E 000°01'0 0.0
2017-Oct-05 17:26N 05°37' E 000°01'0 0.0
2017-Oct-05 16:59N 05°37' E 000°01'0 0.0
2017-Oct-05 15:29N 05°37' E 000°01'0 0.0
2017-Oct-05 14:59N 05°37' E 000°01'0 0.0
2017-Oct-05 14:29N 05°37' E 000°01'0 0.0
2017-Oct-05 13:56N 05°37' E 000°01'0 0.0
2017-Oct-05 13:29N 05°37' E 000°01'0 0.0
2017-Oct-05 12:59N 05°37' E 000°01'0 0.0
2017-Oct-05 12:29N 05°37' E 000°01'0 0.0
2017-Oct-05 11:59N 05°37' E 000°01'0 0.0
2017-Oct-05 11:29N 05°37' E 000°01'0 0.0
2017-Oct-05 10:56N 05°37' E 000°01'0 0.0
2017-Oct-05 10:29N 05°37' E 000°01'0 0.0
2017-Oct-05 09:59N 05°37' E 000°01'0 0.7
2017-Oct-05 09:30N 05°38' E 000°01'1 1.7
2017-Oct-05 08:59N 05°38' E 000°01'0 0.0
2017-Oct-05 08:29N 05°38' E 000°01'0 0.0
2017-Oct-05 07:58N 05°38' E 000°01'0 0.0
2017-Oct-05 07:28N 05°38' E 000°01'0 0.0
2017-Oct-05 06:58N 05°38' E 000°01'0 0.0
2017-Oct-05 06:28N 05°38' E 000°01'0 0.0
2017-Oct-05 05:58N 05°38' E 000°01'0 0.0
2017-Oct-05 05:29N 05°38' E 000°01'0 0.0
2017-Oct-05 04:59N 05°38' E 000°01'0 0.0
2017-Oct-05 04:29N 05°38' E 000°01'0 0.0
2017-Oct-05 03:58N 05°38' E 000°01'0 0.0
2017-Oct-05 03:29N 05°38' E 000°01'0 0.0
2017-Oct-05 02:58N 05°38' E 000°01'0 0.0
2017-Oct-05 02:29N 05°38' E 000°01'0 0.0
2017-Oct-05 01:58N 05°38' E 000°01'0 0.0
2017-Oct-05 01:26N 05°38' E 000°01'0 0.0
2017-Oct-05 00:59N 05°38' E 000°01'0 0.0
2017-Oct-05 00:28N 05°38' E 000°01'0 0.0
2017-Oct-04 23:59N 05°38' E 000°01'0 0.0
2017-Oct-04 17:35N 05°38' E 000°01'0 0.0
2017-Oct-04 17:29N 05°38' E 000°01'0 0.0
2017-Oct-04 16:59N 05°38' E 000°01'0 0.0
2017-Oct-04 16:29N 05°38' E 000°01'0 0.0
2017-Oct-04 15:59N 05°38' E 000°01'0 0.0
2017-Oct-04 15:29N 05°38' E 000°01'0 0.0
2017-Oct-04 14:59N 05°38' E 000°01'0 0.0
2017-Oct-04 14:29N 05°38' E 000°01'0 0.0
2017-Oct-04 13:59N 05°38' E 000°01'0 0.0
2017-Oct-04 13:29N 05°38' E 000°01'0 0.0
2017-Oct-04 12:59N 05°38' E 000°01'0 0.0
2017-Oct-04 12:29N 05°38' E 000°01'0 0.0
2017-Oct-04 11:59N 05°38' E 000°01'0 0.0
2017-Oct-04 11:29N 05°38' E 000°01'0 0.0
2017-Oct-04 10:59N 05°38' E 000°01'0 0.0
2017-Oct-04 10:29N 05°38' E 000°01'0 0.0
2017-Oct-04 09:59N 05°38' E 000°01'0 0.0
2017-Oct-04 09:29N 05°38' E 000°01'0 0.0
2017-Oct-04 08:59N 05°38' E 000°01'0 0.0
2017-Oct-04 08:29N 05°38' E 000°01'0 0.0
2017-Oct-04 07:59N 05°38' E 000°01'0 0.0
2017-Oct-04 07:29N 05°38' E 000°01'0 0.0
2017-Oct-04 06:59N 05°38' E 000°01'0 0.0
2017-Oct-04 06:29N 05°38' E 000°01'0 0.0
2017-Oct-04 05:59N 05°38' E 000°01'0 0.0
2017-Oct-04 05:29N 05°38' E 000°01'0 0.0
2017-Oct-04 04:59N 05°38' E 000°01'0 0.0
2017-Oct-04 04:29N 05°38' E 000°01'0 0.0
2017-Oct-04 03:59N 05°38' E 000°01'0 0.0
2017-Oct-04 03:29N 05°38' E 000°01'0 0.0
2017-Oct-04 02:59N 05°38' E 000°01'0 0.0
2017-Oct-04 02:29N 05°38' E 000°01'0 0.0
2017-Oct-04 01:59N 05°38' E 000°01'0 0.0
2017-Oct-04 01:29N 05°38' E 000°01'0 0.0
2017-Oct-04 00:59N 05°38' E 000°01'0 0.0
2017-Oct-04 00:29N 05°38' E 000°01'0 0.0
2017-Oct-03 23:59N 05°38' E 000°01'0 0.0
2017-Oct-03 23:29N 05°38' E 000°01'0 0.0
2017-Oct-03 22:56N 05°38' E 000°01'0 0.0
2017-Oct-03 22:29N 05°38' E 000°01'0 0.0
2017-Oct-03 21:59N 05°38' E 000°01'0 0.0
2017-Oct-03 16:49N 05°38' E 000°01'0 0.0
2017-Oct-03 16:28N 05°38' E 000°01'0 0.0
2017-Oct-03 15:58N 05°38' E 000°01'0 0.0
2017-Oct-03 15:28N 05°38' E 000°01'0 0.0
2017-Oct-03 14:55N 05°38' E 000°01'0 0.0
2017-Oct-03 13:58N 05°38' E 000°01'0 0.0
2017-Oct-03 13:28N 05°38' E 000°01'0 0.0
2017-Oct-03 12:58N 05°38' E 000°01'0 0.0
2017-Oct-03 12:28N 05°38' E 000°01'0 0.0
2017-Oct-03 11:58N 05°38' E 000°01'0 0.0
2017-Oct-03 11:28N 05°38' E 000°01'0 0.0
2017-Oct-03 10:58N 05°38' E 000°01'0 0.0
2017-Oct-03 10:28N 05°38' E 000°01'0 0.0
2017-Oct-03 09:58N 05°38' E 000°01'0 0.0
2017-Oct-03 09:28N 05°38' E 000°01'0 0.0
2017-Oct-03 08:58N 05°38' E 000°01'0 0.0
2017-Oct-03 08:28N 05°38' E 000°01'0 0.0
2017-Oct-03 07:58N 05°38' E 000°01'0 0.0
2017-Oct-03 07:28N 05°38' E 000°01'0 0.0
2017-Oct-03 06:58N 05°38' E 000°01'0 0.0
2017-Oct-03 06:28N 05°38' E 000°01'0 0.0
2017-Oct-02 17:04N 05°38' E 000°01'0 0.0
2017-Oct-02 16:58N 05°38' E 000°01'0 0.0
2017-Oct-02 16:28N 05°38' E 000°01'0 0.0
2017-Oct-02 15:58N 05°38' E 000°01'0 0.0
2017-Oct-02 15:28N 05°38' E 000°01'0 0.0
2017-Oct-02 14:58N 05°38' E 000°01'0 0.0
2017-Oct-02 14:28N 05°38' E 000°01'0 0.1
2017-Oct-02 13:58N 05°38' E 000°01'0 0.1
2017-Oct-02 13:28N 05°38' E 000°01'0 0.0
2017-Oct-02 12:58N 05°38' E 000°01'0 0.0
2017-Oct-02 12:28N 05°38' E 000°01'0 0.0
2017-Oct-02 11:58N 05°38' E 000°01'0 0.0
2017-Oct-02 11:28N 05°38' E 000°01'0 0.0
2017-Oct-02 10:58N 05°38' E 000°01'0 0.0
2017-Oct-02 10:28N 05°38' E 000°01'0 0.0
2017-Oct-02 09:58N 05°38' E 000°01'0 0.0
2017-Oct-02 09:28N 05°38' E 000°01'0 0.0
2017-Oct-02 08:58N 05°38' E 000°01'0 0.0
2017-Oct-02 08:28N 05°38' E 000°01'0 0.0
2017-Oct-02 07:58N 05°38' E 000°01'0 0.0
2017-Oct-02 07:28N 05°38' E 000°01'0 0.0
2017-Oct-01 16:29N 05°38' E 000°01'0 0.0
2017-Oct-01 16:00N 05°38' E 000°01'0 0.0
2017-Oct-01 15:29N 05°38' E 000°01'0 0.0
2017-Oct-01 14:59N 05°38' E 000°01'0 0.0
2017-Oct-01 14:29N 05°38' E 000°01'0 0.0
2017-Oct-01 13:59N 05°38' E 000°01'0 0.0
2017-Oct-01 13:30N 05°38' E 000°01'0 0.0
2017-Oct-01 13:00N 05°38' E 000°01'0 0.0
2017-Oct-01 12:29N 05°38' E 000°01'0 0.0
2017-Oct-01 11:59N 05°38' E 000°01'0 0.0
2017-Oct-01 11:29N 05°38' E 000°01'0 0.0
2017-Oct-01 10:59N 05°38' E 000°01'0 0.0
2017-Oct-01 10:29N 05°38' E 000°01'0 0.0
2017-Oct-01 09:59N 05°38' E 000°01'0 0.0
2017-Oct-01 09:29N 05°38' E 000°01'0 0.0
2017-Oct-01 08:59N 05°38' E 000°01'0 0.0
2017-Oct-01 08:29N 05°38' E 000°01'0 0.0
2017-Oct-01 08:00N 05°38' E 000°01'0 0.0
2017-Oct-01 07:30N 05°38' E 000°01'0 0.0
2017-Oct-01 06:59N 05°38' E 000°01'0 0.0
2017-Oct-01 06:30N 05°38' E 000°01'0 0.0
2017-Oct-01 06:00N 05°38' E 000°01'0 0.0
2017-Oct-01 05:30N 05°38' E 000°01'0 0.0
2017-Oct-01 05:00N 05°38' E 000°01'0 0.0
2017-Oct-01 04:30N 05°38' E 000°01'0 0.0
2017-Oct-01 04:00N 05°38' E 000°01'0 0.0
2017-Oct-01 03:30N 05°38' E 000°01'0 0.0
2017-Oct-01 03:00N 05°38' E 000°01'  
Track history (hours):
 
Tides and Currents Weather Stations Pressure Air Temp Water Temp Dewpoint Dewpoint Depression Visibility Wind Speed Wind Dir Waves Ship Positions

Yunhai 607

Last reported at 2017-Oct-06 12:34 UTC. Time now 2017-Oct-20 14:10 UTC.
Position N 05°31' W 000°02'.
Warning: this ship's position is 14 days out of date.

Length 35 m.

Type: Fishing. MMSI: 627176000.

Date/timePositionNaut miles runAvg speedWind from/ knotsBaromVisibWave heightAir tempDewpointWater temp
2017-Oct-06 12:34N 05°31' W 000°02'0 7.8
2017-Oct-06 12:31N 05°31' W 000°01'5 7.6
2017-Oct-06 11:53N 05°35' E 000°02'0 0.9
2017-Oct-06 11:25N 05°35' E 000°02'0 0.0
2017-Oct-06 10:46N 05°35' E 000°02'0 0.0
2017-Oct-06 10:25N 05°35' E 000°02'0 0.8
2017-Oct-06 10:00N 05°36' E 000°02'0 0.5
2017-Oct-06 09:30N 05°36' E 000°02'2 4.1
2017-Oct-06 09:00N 05°38' E 000°01'1 1.1
2017-Oct-06 08:29N 05°37' E 000°01'0 0.0
2017-Oct-06 07:59N 05°37' E 000°01'0 0.0
2017-Oct-06 07:29N 05°37' E 000°01'0 0.0
2017-Oct-06 06:59N 05°37' E 000°01'0 0.0
2017-Oct-06 06:29N 05°37' E 000°01'0 0.1
2017-Oct-06 05:59N 05°37' E 000°01'0 0.0
2017-Oct-06 05:29N 05°37' E 000°01'0 0.0
2017-Oct-06 04:59N 05°37' E 000°01'0 0.0
2017-Oct-06 04:29N 05°37' E 000°01'0 0.0
2017-Oct-06 03:59N 05°37' E 000°01'0 0.0
2017-Oct-06 03:29N 05°37' E 000°01'0 0.0
2017-Oct-06 02:59N 05°37' E 000°01'0 0.0
2017-Oct-06 02:30N 05°37' E 000°01'0 0.0
2017-Oct-06 01:58N 05°37' E 000°01'0 0.0
2017-Oct-06 01:28N 05°37' E 000°01'0 0.0
2017-Oct-06 00:58N 05°37' E 000°01'0 0.0
2017-Oct-06 00:30N 05°37' E 000°01'0 0.0
2017-Oct-05 23:59N 05°37' E 000°01'0 0.0
2017-Oct-05 23:29N 05°37' E 000°01'0 0.0
2017-Oct-05 22:59N 05°37' E 000°01'0 0.0
2017-Oct-05 22:29N 05°37' E 000°01'0 0.0
2017-Oct-05 21:59N 05°37' E 000°01'0 0.0
2017-Oct-05 21:29N 05°37' E 000°01'0 0.0
2017-Oct-05 20:59N 05°37' E 000°01'0 0.0
2017-Oct-05 20:29N 05°37' E 000°01'0 0.0
2017-Oct-05 19:59N 05°37' E 000°01'0 0.0
2017-Oct-05 19:29N 05°37' E 000°01'0 0.0
2017-Oct-05 18:59N 05°37' E 000°01'0 0.0
2017-Oct-05 18:29N 05°37' E 000°01'0 0.0
2017-Oct-05 17:59N 05°37' E 000°01'0 0.0
2017-Oct-05 17:26N 05°37' E 000°01'0 0.0
2017-Oct-05 16:59N 05°37' E 000°01'0 0.0
2017-Oct-05 15:29N 05°37' E 000°01'0 0.0
2017-Oct-05 14:59N 05°37' E 000°01'0 0.0
2017-Oct-05 14:29N 05°37' E 000°01'0 0.0
2017-Oct-05 13:56N 05°37' E 000°01'0 0.0
2017-Oct-05 13:29N 05°37' E 000°01'0 0.0
2017-Oct-05 12:59N 05°37' E 000°01'0 0.0
2017-Oct-05 12:29N 05°37' E 000°01'0 0.0
2017-Oct-05 11:59N 05°37' E 000°01'0 0.0
2017-Oct-05 11:29N 05°37' E 000°01'0 0.0
2017-Oct-05 10:56N 05°37' E 000°01'0 0.0
2017-Oct-05 10:29N 05°37' E 000°01'0 0.0
2017-Oct-05 09:59N 05°37' E 000°01'0 0.7
2017-Oct-05 09:30N 05°38' E 000°01'1 1.7
2017-Oct-05 08:59N 05°38' E 000°01'0 0.0
2017-Oct-05 08:29N 05°38' E 000°01'0 0.0
2017-Oct-05 07:58N 05°38' E 000°01'0 0.0
2017-Oct-05 07:28N 05°38' E 000°01'0 0.0
2017-Oct-05 06:58N 05°38' E 000°01'0 0.0
2017-Oct-05 06:28N 05°38' E 000°01'0 0.0
2017-Oct-05 05:58N 05°38' E 000°01'0 0.0
2017-Oct-05 05:29N 05°38' E 000°01'0 0.0
2017-Oct-05 04:59N 05°38' E 000°01'0 0.0
2017-Oct-05 04:29N 05°38' E 000°01'0 0.0
2017-Oct-05 03:58N 05°38' E 000°01'0 0.0
2017-Oct-05 03:29N 05°38' E 000°01'0 0.0
2017-Oct-05 02:58N 05°38' E 000°01'0 0.0
2017-Oct-05 02:29N 05°38' E 000°01'0 0.0
2017-Oct-05 01:58N 05°38' E 000°01'0 0.0
2017-Oct-05 01:26N 05°38' E 000°01'0 0.0
2017-Oct-05 00:59N 05°38' E 000°01'0 0.0
2017-Oct-05 00:28N 05°38' E 000°01'0 0.0
2017-Oct-04 23:59N 05°38' E 000°01'0 0.0
2017-Oct-04 17:35N 05°38' E 000°01'0 0.0
2017-Oct-04 17:29N 05°38' E 000°01'0 0.0
2017-Oct-04 16:59N 05°38' E 000°01'0 0.0
2017-Oct-04 16:29N 05°38' E 000°01'0 0.0
2017-Oct-04 15:59N 05°38' E 000°01'0 0.0
2017-Oct-04 15:29N 05°38' E 000°01'0 0.0
2017-Oct-04 14:59N 05°38' E 000°01'0 0.0
2017-Oct-04 14:29N 05°38' E 000°01'0 0.0
2017-Oct-04 13:59N 05°38' E 000°01'0 0.0
2017-Oct-04 13:29N 05°38' E 000°01'0 0.0
2017-Oct-04 12:59N 05°38' E 000°01'0 0.0
2017-Oct-04 12:29N 05°38' E 000°01'0 0.0
2017-Oct-04 11:59N 05°38' E 000°01'0 0.0
2017-Oct-04 11:29N 05°38' E 000°01'0 0.0
2017-Oct-04 10:59N 05°38' E 000°01'0 0.0
2017-Oct-04 10:29N 05°38' E 000°01'0 0.0
2017-Oct-04 09:59N 05°38' E 000°01'0 0.0
2017-Oct-04 09:29N 05°38' E 000°01'0 0.0
2017-Oct-04 08:59N 05°38' E 000°01'0 0.0
2017-Oct-04 08:29N 05°38' E 000°01'0 0.0
2017-Oct-04 07:59N 05°38' E 000°01'0 0.0
2017-Oct-04 07:29N 05°38' E 000°01'0 0.0
2017-Oct-04 06:59N 05°38' E 000°01'0 0.0
2017-Oct-04 06:29N 05°38' E 000°01'0 0.0
2017-Oct-04 05:59N 05°38' E 000°01'0 0.0
2017-Oct-04 05:29N 05°38' E 000°01'0 0.0
2017-Oct-04 04:59N 05°38' E 000°01'0 0.0
2017-Oct-04 04:29N 05°38' E 000°01'0 0.0
2017-Oct-04 03:59N 05°38' E 000°01'0 0.0
2017-Oct-04 03:29N 05°38' E 000°01'0 0.0
2017-Oct-04 02:59N 05°38' E 000°01'0 0.0
2017-Oct-04 02:29N 05°38' E 000°01'0 0.0
2017-Oct-04 01:59N 05°38' E 000°01'0 0.0
2017-Oct-04 01:29N 05°38' E 000°01'0 0.0
2017-Oct-04 00:59N 05°38' E 000°01'0 0.0
2017-Oct-04 00:29N 05°38' E 000°01'0 0.0
2017-Oct-03 23:59N 05°38' E 000°01'0 0.0
2017-Oct-03 23:29N 05°38' E 000°01'0 0.0
2017-Oct-03 22:56N 05°38' E 000°01'0 0.0
2017-Oct-03 22:29N 05°38' E 000°01'0 0.0
2017-Oct-03 21:59N 05°38' E 000°01'0 0.0
2017-Oct-03 16:49N 05°38' E 000°01'0 0.0
2017-Oct-03 16:28N 05°38' E 000°01'0 0.0
2017-Oct-03 15:58N 05°38' E 000°01'0 0.0
2017-Oct-03 15:28N 05°38' E 000°01'0 0.0
2017-Oct-03 14:55N 05°38' E 000°01'0 0.0
2017-Oct-03 13:58N 05°38' E 000°01'0 0.0
2017-Oct-03 13:28N 05°38' E 000°01'0 0.0
2017-Oct-03 12:58N 05°38' E 000°01'0 0.0
2017-Oct-03 12:28N 05°38' E 000°01'0 0.0
2017-Oct-03 11:58N 05°38' E 000°01'0 0.0
2017-Oct-03 11:28N 05°38' E 000°01'0 0.0
2017-Oct-03 10:58N 05°38' E 000°01'0 0.0
2017-Oct-03 10:28N 05°38' E 000°01'0 0.0
2017-Oct-03 09:58N 05°38' E 000°01'0 0.0
2017-Oct-03 09:28N 05°38' E 000°01'0 0.0
2017-Oct-03 08:58N 05°38' E 000°01'0 0.0
2017-Oct-03 08:28N 05°38' E 000°01'0 0.0
2017-Oct-03 07:58N 05°38' E 000°01'0 0.0
2017-Oct-03 07:28N 05°38' E 000°01'0 0.0
2017-Oct-03 06:58N 05°38' E 000°01'0 0.0
2017-Oct-03 06:28N 05°38' E 000°01'0 0.0
2017-Oct-02 17:04N 05°38' E 000°01'0 0.0
2017-Oct-02 16:58N 05°38' E 000°01'0 0.0
2017-Oct-02 16:28N 05°38' E 000°01'0 0.0
2017-Oct-02 15:58N 05°38' E 000°01'0 0.0
2017-Oct-02 15:28N 05°38' E 000°01'0 0.0
2017-Oct-02 14:58N 05°38' E 000°01'0 0.0
2017-Oct-02 14:28N 05°38' E 000°01'0 0.1
2017-Oct-02 13:58N 05°38' E 000°01'0 0.1
2017-Oct-02 13:28N 05°38' E 000°01'0 0.0
2017-Oct-02 12:58N 05°38' E 000°01'0 0.0
2017-Oct-02 12:28N 05°38' E 000°01'0 0.0
2017-Oct-02 11:58N 05°38' E 000°01'0 0.0
2017-Oct-02 11:28N 05°38' E 000°01'0 0.0
2017-Oct-02 10:58N 05°38' E 000°01'0 0.0
2017-Oct-02 10:28N 05°38' E 000°01'0 0.0
2017-Oct-02 09:58N 05°38' E 000°01'0 0.0
2017-Oct-02 09:28N 05°38' E 000°01'0 0.0
2017-Oct-02 08:58N 05°38' E 000°01'0 0.0
2017-Oct-02 08:28N 05°38' E 000°01'0 0.0
2017-Oct-02 07:58N 05°38' E 000°01'0 0.0
2017-Oct-02 07:28N 05°38' E 000°01'0 0.0
2017-Oct-01 16:29N 05°38' E 000°01'0 0.0
2017-Oct-01 16:00N 05°38' E 000°01'0 0.0
2017-Oct-01 15:29N 05°38' E 000°01'0 0.0
2017-Oct-01 14:59N 05°38' E 000°01'0 0.0
2017-Oct-01 14:29N 05°38' E 000°01'0 0.0
2017-Oct-01 13:59N 05°38' E 000°01'0 0.0
2017-Oct-01 13:30N 05°38' E 000°01'0 0.0
2017-Oct-01 13:00N 05°38' E 000°01'0 0.0
2017-Oct-01 12:29N 05°38' E 000°01'0 0.0
2017-Oct-01 11:59N 05°38' E 000°01'0 0.0
2017-Oct-01 11:29N 05°38' E 000°01'0 0.0
2017-Oct-01 10:59N 05°38' E 000°01'0 0.0
2017-Oct-01 10:29N 05°38' E 000°01'0 0.0
2017-Oct-01 09:59N 05°38' E 000°01'0 0.0
2017-Oct-01 09:29N 05°38' E 000°01'0 0.0
2017-Oct-01 08:59N 05°38' E 000°01'0 0.0
2017-Oct-01 08:29N 05°38' E 000°01'0 0.0
2017-Oct-01 08:00N 05°38' E 000°01'0 0.0
2017-Oct-01 07:30N 05°38' E 000°01'0 0.0
2017-Oct-01 06:59N 05°38' E 000°01'0 0.0
2017-Oct-01 06:30N 05°38' E 000°01'0 0.0
2017-Oct-01 06:00N 05°38' E 000°01'0 0.0
2017-Oct-01 05:30N 05°38' E 000°01'0 0.0
2017-Oct-01 05:00N 05°38' E 000°01'0 0.0
2017-Oct-01 04:30N 05°38' E 000°01'0 0.0
2017-Oct-01 04:00N 05°38' E 000°01'0 0.0
2017-Oct-01 03:30N 05°38' E 000°01'0 0.0
2017-Oct-01 03:00N 05°38' E 000°01'  

Dump ship's entire track history